createdAt,value
2019-04-11T00:03:44.616Z,15.78
2019-04-11T00:08:47.104Z,15.72
2019-04-11T00:13:49.519Z,15.65
2019-04-11T00:18:51.791Z,14.85
2019-04-11T00:23:54.529Z,15.00
2019-04-11T00:28:56.894Z,15.35
2019-04-11T00:33:58.912Z,15.20
2019-04-11T00:39:01.385Z,15.30
2019-04-11T00:44:03.859Z,14.55
2019-04-11T00:49:06.247Z,14.53
2019-04-11T00:54:08.777Z,15.15
2019-04-11T00:59:10.951Z,14.40
2019-04-11T01:04:13.713Z,14.47
2019-04-11T01:09:15.915Z,13.85
2019-04-11T01:14:17.889Z,13.90
2019-04-11T01:19:19.925Z,14.55
2019-04-11T01:24:22.144Z,14.87
2019-04-11T01:29:25.191Z,14.30
2019-04-11T01:34:28.706Z,13.50
2019-04-11T01:39:57.204Z,13.72
2019-04-11T01:44:59.473Z,14.70
2019-04-11T01:50:02.993Z,13.83
2019-04-11T01:55:05.485Z,13.70
2019-04-11T02:00:10.855Z,14.35
2019-04-11T02:05:25.079Z,14.35
2019-04-11T02:10:28.617Z,13.80
2019-04-11T02:15:30.891Z,13.72
2019-04-11T02:20:33.409Z,13.70
2019-04-11T02:25:51.045Z,12.68
2019-04-11T02:30:55.799Z,14.83
2019-04-11T02:35:58.249Z,12.68
2019-04-11T02:41:01.157Z,13.55
2019-04-11T02:46:11.706Z,12.98
2019-04-11T02:51:07.646Z,13.98
2019-04-11T02:56:11.705Z,13.20
2019-04-11T03:01:15.469Z,12.60
2019-04-11T03:06:19.358Z,12.78
2019-04-11T03:11:23.655Z,13.35
2019-04-11T03:16:39.351Z,13.35
2019-04-11T03:21:33.217Z,12.47
2019-04-11T03:26:35.509Z,12.65
2019-04-11T03:42:07.409Z,13.08
2019-04-11T03:47:08.402Z,12.60
2019-04-11T03:51:55.275Z,12.60
2019-04-11T03:56:59.172Z,11.85
2019-04-11T04:02:03.131Z,11.90
2019-04-11T04:07:06.905Z,11.30
2019-04-11T04:12:11.459Z,12.18
2019-04-11T04:17:25.500Z,11.80
2019-04-11T04:22:35.454Z,12.07
2019-04-11T04:27:38.773Z,11.78
2019-04-11T04:32:42.863Z,12.05
2019-04-11T04:37:47.079Z,11.95
2019-04-11T04:42:53.313Z,12.53
2019-04-11T04:48:00.470Z,12.25
2019-04-11T04:52:58.635Z,10.80
2019-04-11T04:58:02.204Z,11.63
2019-04-11T05:03:05.521Z,10.82
2019-04-11T05:08:08.320Z,11.28
2019-04-11T05:13:12.974Z,11.48
2019-04-11T05:18:17.454Z,10.15
2019-04-11T05:23:19.200Z,10.18
2019-04-11T05:28:21.486Z,10.70
2019-04-11T05:33:23.666Z,10.48
2019-04-11T05:38:25.704Z,10.20
2019-04-11T05:43:31.467Z,11.03
2019-04-11T05:49:00.427Z,9.90
2019-04-11T05:54:06.267Z,10.10
2019-04-11T05:59:18.912Z,9.95
2019-04-11T06:04:30.443Z,9.75
2019-04-11T06:09:36.022Z,10.32
2019-04-11T06:14:44.634Z,10.10
2019-04-11T06:20:06.483Z,9.83
2019-04-11T06:25:46.321Z,9.85
2019-04-11T06:31:06.060Z,10.90
2019-04-11T06:36:26.627Z,10.38
2019-04-11T06:41:43.024Z,10.60
2019-04-11T06:47:08.275Z,9.98
2019-04-11T06:52:10.775Z,9.88
2019-04-11T06:57:16.627Z,10.50
2019-04-11T07:02:21.367Z,10.60
2019-04-11T07:07:27.024Z,9.98
2019-04-11T07:12:40.770Z,10.30
2019-04-11T07:18:21.001Z,9.80
2019-04-11T07:23:44.004Z,9.95
2019-04-11T07:29:04.515Z,9.53
2019-04-11T07:34:37.469Z,9.28
2019-04-11T07:39:58.580Z,9.10
2019-04-11T07:45:04.158Z,8.55
2019-04-11T07:50:07.905Z,8.45
2019-04-11T07:55:11.851Z,7.55
2019-04-11T08:00:38.638Z,7.37
2019-04-11T08:05:53.030Z,7.97
2019-04-11T08:11:06.715Z,7.10
2019-04-11T08:16:28.977Z,6.90
2019-04-11T08:21:50.417Z,7.37
2019-04-11T08:27:17.726Z,7.47
2019-04-11T08:32:38.153Z,7.10
2019-04-11T08:38:09.915Z,6.87
2019-04-11T08:43:17.071Z,7.08
2019-04-11T08:48:19.258Z,6.47
2019-04-11T08:53:40.662Z,6.97
2019-04-11T08:59:22.802Z,7.03
2019-04-11T09:04:50.370Z,7.40
2019-04-11T09:10:13.790Z,7.25
2019-04-11T09:15:35.157Z,6.95
2019-04-11T09:20:50.217Z,7.03
2019-04-11T09:26:30.284Z,7.35
2019-04-11T09:31:50.111Z,7.87
2019-04-11T09:37:18.818Z,7.03
2019-04-11T09:42:41.081Z,6.65
2019-04-11T09:48:08.367Z,7.03
2019-04-11T09:53:05.780Z,6.97
2019-04-11T09:58:23.198Z,6.78
2019-04-11T10:03:28.721Z,6.22
2019-04-11T10:08:37.343Z,6.87
2019-04-11T10:13:59.544Z,7.05
2019-04-11T10:19:08.367Z,6.17
2019-04-11T10:24:30.502Z,5.58
2019-04-11T10:29:50.583Z,6.62
2019-04-11T10:35:12.199Z,6.30
2019-04-11T10:40:44.212Z,5.83
2019-04-11T10:46:15.416Z,5.90
2019-04-11T10:51:27.046Z,6.03
2019-04-11T10:56:41.918Z,5.97
2019-04-11T11:02:18.790Z,5.70
2019-04-11T11:07:24.654Z,5.30
2019-04-11T11:12:35.150Z,5.67
2019-04-11T11:23:20.469Z,4.95
2019-04-11T11:28:23.790Z,5.75
2019-04-11T11:33:27.935Z,5.55
2019-04-11T11:38:30.283Z,5.78
2019-04-11T11:43:33.060Z,6.37
2019-04-11T11:48:46.384Z,6.40
2019-04-11T11:54:07.088Z,6.70
2019-04-11T11:59:40.726Z,6.78
2019-04-11T12:04:52.621Z,7.15
2019-04-11T12:10:15.277Z,7.08
2019-04-11T12:15:41.332Z,6.97
2019-04-11T12:20:49.346Z,7.58
2019-04-11T12:25:51.609Z,8.13
2019-04-11T12:31:00.716Z,7.90
2019-04-11T12:36:12.550Z,7.05
2019-04-11T12:41:29.151Z,7.80
2019-04-11T12:46:49.322Z,7.62
2019-04-11T12:52:10.127Z,6.92
2019-04-11T12:57:30.075Z,7.47
2019-04-11T13:03:00.450Z,7.33
2019-04-11T13:08:27.222Z,6.83
2019-04-11T13:13:34.287Z,6.83
2019-04-11T13:19:04.651Z,7.10
2019-04-11T13:24:34.250Z,6.65
2019-04-11T13:30:04.779Z,8.33
2019-04-11T13:35:37.881Z,7.47
2019-04-11T13:41:01.827Z,6.67
2019-04-11T13:46:32.166Z,7.12
2019-04-11T13:51:51.896Z,7.83
2019-04-11T13:57:09.772Z,8.03
2019-04-11T14:02:20.386Z,7.55
2019-04-11T14:07:23.616Z,7.25
2019-04-11T14:12:26.325Z,7.28
2019-04-11T14:17:46.330Z,7.40
2019-04-11T14:23:14.889Z,7.90
2019-04-11T14:28:17.317Z,8.05
2019-04-11T14:33:19.083Z,8.03
2019-04-11T14:38:22.368Z,7.55
2019-04-11T14:43:26.300Z,8.10
2019-04-11T14:48:47.516Z,7.62
2019-04-11T14:54:18.421Z,7.12
2019-04-11T14:59:29.987Z,7.50
2019-04-11T15:05:00.054Z,8.25
2019-04-11T15:10:20.071Z,8.50
2019-04-11T15:15:39.304Z,7.92
2019-04-11T15:20:54.861Z,7.55
2019-04-11T15:26:11.455Z,7.05
2019-04-11T15:31:42.018Z,7.17
2019-04-11T15:36:50.727Z,7.75
2019-04-11T15:42:00.360Z,7.83
2019-04-11T15:46:57.664Z,7.37
2019-04-11T15:52:12.345Z,7.33
2019-04-11T15:57:33.476Z,7.95
2019-04-11T16:02:57.219Z,7.67
2019-04-11T16:08:27.291Z,7.90
2019-04-11T16:13:48.462Z,8.90
2019-04-11T16:19:12.435Z,8.20
2019-04-11T16:24:22.571Z,10.53
2019-04-11T16:29:28.224Z,9.58
2019-04-11T16:34:48.554Z,7.95
2019-04-11T16:40:10.095Z,7.53
2019-04-11T16:45:37.686Z,7.70
2019-04-11T16:50:39.267Z,8.25
2019-04-11T16:55:43.233Z,7.67
2019-04-11T17:00:44.541Z,7.33
2019-04-11T17:06:17.952Z,7.70
2019-04-11T17:11:19.675Z,7.80
2019-04-11T17:16:21.667Z,7.45
2019-04-11T17:21:23.439Z,6.95
2019-04-11T17:26:25.155Z,6.37
2019-04-11T17:31:26.881Z,7.67
2019-04-11T17:36:30.817Z,6.90
2019-04-11T17:41:32.103Z,6.30
2019-04-11T17:46:33.670Z,6.60
2019-04-11T17:51:35.369Z,6.40
2019-04-11T17:56:37.033Z,6.45
2019-04-11T18:01:38.625Z,7.60
2019-04-11T18:06:40.360Z,7.65
2019-04-11T18:11:42.072Z,6.85
2019-04-11T18:16:43.709Z,6.83
2019-04-11T18:21:45.520Z,6.45
2019-04-11T18:26:47.216Z,7.57
2019-04-11T18:31:49.419Z,6.60
2019-04-11T18:36:51.064Z,6.60
2019-04-11T18:41:52.755Z,6.25
2019-04-11T18:46:54.528Z,6.55
2019-04-11T18:51:56.102Z,7.67
2019-04-11T18:56:57.827Z,7.20
2019-04-11T19:01:59.547Z,6.85
2019-04-11T19:07:01.196Z,6.40
2019-04-11T19:12:03.995Z,6.55
2019-04-11T19:17:05.708Z,6.65
2019-04-11T19:22:07.621Z,6.72
2019-04-11T19:27:09.283Z,5.70
2019-04-11T19:32:10.895Z,6.35
2019-04-11T19:37:12.770Z,5.70
2019-04-11T19:42:18.810Z,6.08
2019-04-11T19:47:21.387Z,5.83
2019-04-11T19:52:21.678Z,6.30
2019-04-11T19:57:23.387Z,6.30
2019-04-11T20:02:25.137Z,6.12
2019-04-11T20:07:26.872Z,6.42
2019-04-11T20:12:30.060Z,5.97
2019-04-11T20:17:43.795Z,5.95
2019-04-11T20:22:39.210Z,5.65
2019-04-11T20:27:40.304Z,5.75
2019-04-11T20:32:41.982Z,5.85
2019-04-11T20:37:44.705Z,5.78
2019-04-11T20:42:47.065Z,5.53
2019-04-11T20:47:48.745Z,5.85
2019-04-11T20:52:50.471Z,5.40
2019-04-11T20:57:52.624Z,5.97
2019-04-11T21:02:58.117Z,7.53
2019-04-11T21:08:03.093Z,5.90
2019-04-11T21:13:07.103Z,5.72
2019-04-11T21:18:14.447Z,5.70
2019-04-11T21:23:24.425Z,5.25
2019-04-11T21:28:19.743Z,5.25
2019-04-11T21:33:21.593Z,5.92
2019-04-11T21:38:23.271Z,5.03
2019-04-11T21:43:25.011Z,5.78
2019-04-11T21:48:26.704Z,5.30
2019-04-11T21:53:36.449Z,5.92
2019-04-11T21:58:31.912Z,5.67
2019-04-11T22:03:33.791Z,6.15
2019-04-11T22:08:35.376Z,5.65
2019-04-11T22:13:38.021Z,5.60
2019-04-11T22:18:40.695Z,5.40
2019-04-11T22:23:48.750Z,5.12
2019-04-11T22:28:45.856Z,5.50
2019-04-11T22:33:57.843Z,5.78
2019-04-11T22:39:01.110Z,5.47
2019-04-11T22:44:03.259Z,6.17
2019-04-11T22:49:08.642Z,6.12
2019-04-11T22:54:08.331Z,6.05
2019-04-11T22:59:13.570Z,6.25
2019-04-11T23:04:16.591Z,5.97
2019-04-11T23:09:19.539Z,6.42
2019-04-11T23:14:20.614Z,5.87
2019-04-11T23:19:22.324Z,5.75
2019-04-11T23:24:24.030Z,5.95
2019-04-11T23:29:25.605Z,6.60
2019-04-11T23:34:27.332Z,6.28
2019-04-11T23:39:29.129Z,6.45
2019-04-11T23:44:30.888Z,6.55
2019-04-11T23:49:32.543Z,6.67
2019-04-11T23:54:34.187Z,5.75
2019-04-11T23:59:35.787Z,6.22
